createdAt,value
2018-02-21T00:02:21.470Z,99935.83
2018-02-21T00:04:58.605Z,99964.83
2018-02-21T00:07:28.604Z,99957.63
2018-02-21T00:10:00.639Z,99928.42
2018-02-21T00:12:31.400Z,99947.16
2018-02-21T00:15:01.095Z,99960.86
2018-02-21T00:17:32.098Z,99955.95
2018-02-21T00:22:32.243Z,99948.53
2018-02-21T00:25:04.131Z,99979.75
2018-02-21T00:27:34.344Z,99938.45
2018-02-21T00:30:06.780Z,99981.62
2018-02-21T00:32:37.734Z,99977.63
2018-02-21T00:35:07.671Z,99990.80
2018-02-21T00:37:38.375Z,99992.74
2018-02-21T00:40:08.074Z,99981.08
2018-02-21T00:42:37.855Z,100005.20
2018-02-21T00:45:07.983Z,100003.69
2018-02-21T00:47:39.450Z,100002.73
2018-02-21T00:50:12.627Z,100018.80
2018-02-21T00:52:44.051Z,99995.46
2018-02-21T00:55:17.229Z,100003.08
2018-02-21T00:57:47.250Z,100026.80
2018-02-21T01:00:16.875Z,100026.27
2018-02-21T01:02:46.872Z,100011.98
2018-02-21T01:05:17.513Z,100016.95
2018-02-21T01:07:47.589Z,100023.41
2018-02-21T01:10:17.524Z,100017.16
2018-02-21T01:12:47.849Z,100032.73
2018-02-21T01:15:20.928Z,100020.44
2018-02-21T01:17:53.136Z,100031.61
2018-02-21T01:20:24.750Z,100003.89
2018-02-21T01:22:56.270Z,100032.38
2018-02-21T01:25:26.417Z,100007.23
2018-02-21T01:27:58.521Z,100037.69
2018-02-21T01:30:29.057Z,100038.16
2018-02-21T01:33:00.392Z,100040.40
2018-02-21T01:35:33.273Z,100019.99
2018-02-21T01:38:04.047Z,100010.05
2018-02-21T01:40:34.633Z,100040.52
2018-02-21T01:43:07.065Z,100018.16
2018-02-21T01:45:37.354Z,100021.55
2018-02-21T01:48:07.942Z,100049.25
2018-02-21T01:50:47.429Z,100052.70
2018-02-21T01:53:17.372Z,100042.23
2018-02-21T01:55:48.183Z,100034.36
2018-02-21T01:58:19.684Z,100033.58
2018-02-21T02:00:49.643Z,100046.59
2018-02-21T02:03:20.590Z,100048.52
2018-02-21T02:05:51.423Z,100054.66
2018-02-21T02:08:22.343Z,100053.14
2018-02-21T02:10:52.383Z,100074.93
2018-02-21T02:13:22.687Z,100068.91
2018-02-21T02:15:57.942Z,100073.34
2018-02-21T02:18:28.992Z,100068.08
2018-02-21T02:21:02.038Z,100061.98
2018-02-21T02:23:31.747Z,100093.82
2018-02-21T02:26:01.611Z,100099.94
2018-02-21T02:28:34.265Z,100082.45
2018-02-21T02:31:04.506Z,100090.77
2018-02-21T02:33:34.899Z,100099.91
2018-02-21T02:36:04.602Z,100102.22
2018-02-21T02:38:50.830Z,100112.98
2018-02-21T02:41:21.259Z,100100.56
2018-02-21T02:43:51.145Z,100116.68
2018-02-21T02:46:21.910Z,100118.22
2018-02-21T02:48:51.574Z,100115.00
2018-02-21T02:51:22.040Z,100074.84
2018-02-21T02:53:52.939Z,100045.58
2018-02-21T02:56:23.070Z,100092.14
2018-02-21T02:58:52.995Z,100107.77
2018-02-21T03:01:22.909Z,100115.91
2018-02-21T03:03:56.077Z,100088.89
2018-02-21T03:06:27.029Z,100110.30
2018-02-21T03:08:58.885Z,100119.83
2018-02-21T03:11:30.517Z,100125.23
2018-02-21T03:14:00.199Z,100110.61
2018-02-21T03:16:29.757Z,100103.78
2018-02-21T03:19:01.397Z,100021.80
2018-02-21T03:21:41.327Z,100094.84
2018-02-21T03:24:10.904Z,100124.42
2018-02-21T03:26:40.819Z,100122.54
2018-02-21T03:29:10.601Z,100107.18
2018-02-21T03:31:40.321Z,100120.33
2018-02-21T03:34:09.786Z,100121.78
2018-02-21T03:36:39.903Z,100041.00
2018-02-21T03:39:10.081Z,100098.78
2018-02-21T03:41:39.786Z,100127.23
2018-02-21T03:44:10.704Z,100120.97
2018-02-21T03:46:40.217Z,100129.45
2018-02-21T03:49:10.056Z,100129.09
2018-02-21T03:51:39.598Z,100124.78
2018-02-21T03:54:09.009Z,100132.73
2018-02-21T03:56:39.246Z,100134.35
2018-02-21T03:59:08.853Z,100119.23
2018-02-21T04:01:39.049Z,100134.08
2018-02-21T04:04:08.806Z,100145.18
2018-02-21T04:06:38.535Z,100141.08
2018-02-21T04:09:08.959Z,100149.20
2018-02-21T04:11:38.442Z,100152.48
2018-02-21T04:14:08.160Z,100152.34
2018-02-21T04:16:38.286Z,100151.88
2018-02-21T04:19:08.068Z,100134.55
2018-02-21T04:21:38.119Z,100157.53
2018-02-21T04:24:08.178Z,100149.88
2018-02-21T04:26:37.991Z,100167.75
2018-02-21T04:29:07.915Z,100160.86
2018-02-21T04:31:37.571Z,100127.67
2018-02-21T04:34:07.875Z,100123.40
2018-02-21T04:36:37.884Z,100154.27
2018-02-21T04:39:07.586Z,100164.30
2018-02-21T04:41:37.559Z,100158.95
2018-02-21T04:44:07.658Z,100159.41
2018-02-21T04:46:37.386Z,100106.23
2018-02-21T04:49:07.236Z,100149.30
2018-02-21T04:51:37.405Z,100146.67
2018-02-21T04:54:08.655Z,100142.77
2018-02-21T04:56:38.421Z,100146.02
2018-02-21T04:59:08.359Z,100150.11
2018-02-21T05:01:38.430Z,100156.59
2018-02-21T05:04:08.080Z,100155.77
2018-02-21T05:06:38.303Z,100163.89
2018-02-21T05:09:10.848Z,100155.66
2018-02-21T05:11:40.451Z,100149.70
2018-02-21T05:14:10.408Z,100155.61
2018-02-21T05:16:40.253Z,100152.02
2018-02-21T05:19:10.053Z,100132.95
2018-02-21T05:21:39.654Z,100148.13
2018-02-21T05:24:09.826Z,100145.14
2018-02-21T05:26:39.671Z,100146.89
2018-02-21T05:30:12.936Z,100125.86
2018-02-21T05:32:42.907Z,100134.91
2018-02-21T05:35:13.759Z,100156.09
2018-02-21T05:37:43.230Z,100118.91
2018-02-21T05:40:12.860Z,100128.78
2018-02-21T05:42:42.253Z,100091.19
2018-02-21T05:45:12.094Z,100097.86
2018-02-21T05:47:41.772Z,100120.58
2018-02-21T05:50:11.945Z,100121.75
2018-02-21T05:52:41.807Z,100121.51
2018-02-21T05:55:11.205Z,100124.84
2018-02-21T05:57:40.807Z,100123.30
2018-02-21T06:00:11.189Z,100139.52
2018-02-21T06:02:41.634Z,100113.46
2018-02-21T06:05:11.419Z,100135.59
2018-02-21T06:07:41.389Z,100129.17
2018-02-21T06:10:11.563Z,100145.45
2018-02-21T06:12:41.919Z,100142.61
2018-02-21T06:15:14.862Z,100150.53
2018-02-21T06:17:44.826Z,100150.94
2018-02-21T06:20:17.154Z,100157.17
2018-02-21T06:22:51.612Z,100135.09
2018-02-21T06:25:22.299Z,100161.94
2018-02-21T06:27:54.762Z,100155.02
2018-02-21T06:30:25.990Z,100127.03
2018-02-21T06:32:56.784Z,100157.94
2018-02-21T06:35:27.948Z,100136.06
2018-02-21T06:37:59.137Z,100114.48
2018-02-21T06:40:29.075Z,100156.30
2018-02-21T06:42:59.210Z,100149.98
2018-02-21T06:45:28.921Z,100157.34
2018-02-21T06:47:59.093Z,100166.75
2018-02-21T06:50:28.704Z,100181.81
2018-02-21T06:52:58.213Z,100183.24
2018-02-21T06:55:29.806Z,100156.12
2018-02-21T06:57:59.826Z,100184.80
2018-02-21T07:00:29.592Z,100177.94
2018-02-21T07:02:59.482Z,100175.59
2018-02-21T07:05:30.515Z,100184.23
2018-02-21T07:08:03.667Z,100098.70
2018-02-21T07:10:33.752Z,100179.20
2018-02-21T07:13:03.266Z,100181.71
2018-02-21T07:15:32.855Z,100174.68
2018-02-21T07:18:03.181Z,100152.89
2018-02-21T07:20:33.430Z,100174.78
2018-02-21T07:23:04.741Z,100174.43
2018-02-21T07:25:35.268Z,100132.38
2018-02-21T07:28:06.900Z,100176.23
2018-02-21T07:30:37.021Z,100169.92
2018-02-21T07:33:07.155Z,100171.17
2018-02-21T07:35:36.987Z,100177.45
2018-02-21T07:38:06.971Z,100166.36
2018-02-21T07:40:36.885Z,100163.92
2018-02-21T07:43:07.020Z,100148.86
2018-02-21T07:45:37.547Z,100166.36
2018-02-21T07:48:07.159Z,100189.77
2018-02-21T07:50:36.713Z,100201.09
2018-02-21T07:53:06.878Z,100142.02
2018-02-21T07:55:36.713Z,100205.25
2018-02-21T07:58:06.500Z,100220.02
2018-02-21T08:00:36.767Z,100199.87
2018-02-21T08:03:07.097Z,100225.33
2018-02-21T08:05:36.977Z,100193.63
2018-02-21T08:08:07.906Z,100232.19
2018-02-21T08:10:37.624Z,100228.61
2018-02-21T08:13:08.307Z,100239.72
2018-02-21T08:15:38.372Z,100249.25
2018-02-21T08:18:09.092Z,100246.97
2018-02-21T08:20:38.666Z,100253.07
2018-02-21T08:23:08.633Z,100264.17
2018-02-21T08:25:38.636Z,100254.73
2018-02-21T08:28:09.157Z,100240.36
2018-02-21T08:30:39.726Z,100270.56
2018-02-21T08:33:10.003Z,100266.94
2018-02-21T08:35:39.561Z,100223.91
2018-02-21T08:38:09.561Z,100261.73
2018-02-21T08:40:39.210Z,100269.36
2018-02-21T08:43:08.848Z,100252.80
2018-02-21T08:45:39.444Z,100271.80
2018-02-21T08:48:09.421Z,100269.45
2018-02-21T08:50:39.373Z,100266.98
2018-02-21T08:53:09.303Z,100261.91
2018-02-21T08:55:38.778Z,100257.16
2018-02-21T08:58:08.280Z,100259.97
2018-02-21T09:00:38.376Z,100260.02
2018-02-21T09:03:08.629Z,100253.73
2018-02-21T09:05:38.114Z,100261.42
2018-02-21T09:08:08.668Z,100243.88
2018-02-21T09:10:38.250Z,100248.84
2018-02-21T09:13:07.752Z,100246.20
2018-02-21T09:15:37.551Z,100261.58
2018-02-21T09:18:07.470Z,100271.09
2018-02-21T09:20:37.460Z,100260.50
2018-02-21T09:23:07.321Z,100256.47
2018-02-21T09:25:37.026Z,100264.39
2018-02-21T09:28:06.956Z,100253.95
2018-02-21T09:30:36.752Z,100260.59
2018-02-21T09:33:07.471Z,100257.97
2018-02-21T09:35:39.271Z,100257.44
2018-02-21T09:38:10.494Z,100253.42
2018-02-21T09:40:40.194Z,100245.28
2018-02-21T09:43:10.256Z,100236.64
2018-02-21T09:45:40.186Z,100235.16
2018-02-21T09:48:09.636Z,100256.86
2018-02-21T09:50:39.800Z,100242.77
2018-02-21T09:53:10.092Z,100248.25
2018-02-21T09:55:39.528Z,100249.27
2018-02-21T09:58:09.113Z,100242.08
2018-02-21T10:00:38.982Z,100246.93
2018-02-21T10:03:08.434Z,100257.56
2018-02-21T10:05:38.240Z,100249.09
2018-02-21T10:08:08.549Z,100234.99
2018-02-21T10:10:38.078Z,100243.91
2018-02-21T10:13:08.229Z,100245.45
2018-02-21T10:15:38.266Z,100252.58
2018-02-21T10:18:07.785Z,100257.19
2018-02-21T10:20:37.402Z,100249.42
2018-02-21T10:23:08.082Z,100244.51
2018-02-21T10:25:37.784Z,100237.66
2018-02-21T10:28:08.098Z,100225.48
2018-02-21T10:30:37.860Z,100230.08
2018-02-21T10:33:09.835Z,100227.09
2018-02-21T10:35:39.303Z,100222.74
2018-02-21T10:38:09.434Z,100207.48
2018-02-21T10:40:39.080Z,100208.28
2018-02-21T10:43:09.238Z,100206.71
2018-02-21T10:45:39.338Z,100192.66
2018-02-21T10:48:09.450Z,100210.81
2018-02-21T10:50:39.229Z,100200.59
2018-02-21T10:53:09.012Z,100206.28
2018-02-21T10:55:38.832Z,100208.62
2018-02-21T10:58:08.482Z,100197.51
2018-02-21T11:00:42.715Z,100193.55
2018-02-21T11:03:12.801Z,100191.02
2018-02-21T11:05:42.387Z,100165.54
2018-02-21T11:08:12.075Z,100177.61
2018-02-21T11:10:42.412Z,100172.17
2018-02-21T11:13:12.399Z,100160.27
2018-02-21T11:15:41.912Z,100167.36
2018-02-21T11:18:12.674Z,100161.23
2018-02-21T11:20:42.474Z,100178.22
2018-02-21T11:23:12.275Z,100177.67
2018-02-21T11:25:43.061Z,100150.31
2018-02-21T11:28:12.640Z,100188.67
2018-02-21T11:30:42.099Z,100189.77
2018-02-21T11:33:11.645Z,100183.99
2018-02-21T11:35:41.543Z,100188.08
2018-02-21T11:38:11.140Z,100179.55
2018-02-21T11:40:42.652Z,100187.22
2018-02-21T11:43:12.683Z,100184.00
2018-02-21T11:45:42.199Z,100187.00
2018-02-21T11:48:12.064Z,100187.41
2018-02-21T11:50:41.584Z,100192.25
2018-02-21T11:53:11.261Z,100183.34
2018-02-21T11:55:41.858Z,100191.01
2018-02-21T11:58:11.565Z,100194.62
2018-02-21T12:00:41.088Z,100193.95
2018-02-21T12:03:10.632Z,100196.07
2018-02-21T12:05:40.057Z,100191.36
2018-02-21T12:08:09.931Z,100201.19
2018-02-21T12:10:40.351Z,100202.27
2018-02-21T12:13:09.829Z,100183.96
2018-02-21T12:15:39.358Z,100191.49
2018-02-21T12:18:08.847Z,100199.14
2018-02-21T12:20:38.265Z,100187.48
2018-02-21T12:23:07.739Z,100195.39
2018-02-21T12:25:38.486Z,100185.32
2018-02-21T12:28:08.225Z,100181.05
2018-02-21T12:30:37.874Z,100175.80
2018-02-21T12:33:07.546Z,100193.69
2018-02-21T12:35:37.625Z,100167.09
2018-02-21T12:38:07.381Z,100160.78
2018-02-21T12:40:41.136Z,100164.59
2018-02-21T12:43:11.016Z,100164.95
2018-02-21T12:45:40.889Z,100176.11
2018-02-21T12:48:10.386Z,100174.23
2018-02-21T12:50:40.170Z,100173.59
2018-02-21T12:53:09.701Z,100177.65
2018-02-21T12:55:39.149Z,100161.27
2018-02-21T12:58:08.581Z,100168.95
2018-02-21T13:00:38.022Z,100159.09
2018-02-21T13:03:07.568Z,100158.22
2018-02-21T13:05:37.380Z,100165.56
2018-02-21T13:08:06.938Z,100162.02
2018-02-21T13:10:36.527Z,100159.06
2018-02-21T13:13:06.717Z,100159.66
2018-02-21T13:15:36.290Z,100151.23
2018-02-21T13:18:07.268Z,100152.70
2018-02-21T13:20:37.177Z,100153.47
2018-02-21T13:23:06.949Z,100149.86
2018-02-21T13:25:38.604Z,100163.31
2018-02-21T13:28:10.580Z,100141.16
2018-02-21T13:30:40.208Z,100152.03
2018-02-21T13:33:11.667Z,100137.48
2018-02-21T13:35:41.274Z,100144.06
2018-02-21T13:38:11.295Z,100141.00
2018-02-21T13:40:40.783Z,100141.42
2018-02-21T13:43:13.728Z,100134.59
2018-02-21T13:45:45.288Z,100124.23
2018-02-21T13:48:15.163Z,100128.97
2018-02-21T13:50:45.139Z,100134.70
2018-02-21T13:53:14.905Z,100131.47
2018-02-21T13:55:44.648Z,100130.33
2018-02-21T13:58:14.289Z,100130.31
2018-02-21T14:00:44.305Z,100132.05
2018-02-21T14:03:13.783Z,100140.50
2018-02-21T14:05:43.498Z,100119.77
2018-02-21T14:08:13.531Z,100140.73
2018-02-21T14:10:42.959Z,100140.98
2018-02-21T14:13:12.715Z,100144.39
2018-02-21T14:15:42.669Z,100141.31
2018-02-21T14:18:12.805Z,100151.10
2018-02-21T14:20:42.738Z,100142.39
2018-02-21T14:23:12.835Z,100157.67
2018-02-21T14:25:42.388Z,100142.83
2018-02-21T14:28:11.883Z,100133.34
2018-02-21T14:30:42.079Z,100135.45
2018-02-21T14:33:11.516Z,100138.54
2018-02-21T14:35:41.025Z,100143.41
2018-02-21T14:38:10.928Z,100136.02
2018-02-21T14:40:40.478Z,100140.55
2018-02-21T14:43:10.025Z,100140.22
2018-02-21T14:45:39.865Z,100131.97
2018-02-21T14:48:11.648Z,100142.47
2018-02-21T14:50:41.168Z,100140.27
2018-02-21T14:53:12.019Z,100141.75
2018-02-21T14:55:41.566Z,100114.31
2018-02-21T14:58:11.101Z,100145.98
2018-02-21T15:00:40.966Z,100154.72
2018-02-21T15:03:10.493Z,100138.64
2018-02-21T15:05:39.995Z,100148.22
2018-02-21T15:08:09.875Z,100148.03
2018-02-21T15:10:40.294Z,100142.92
2018-02-21T15:13:10.185Z,100146.88
2018-02-21T15:15:40.069Z,100146.03
2018-02-21T15:18:10.644Z,100152.78
2018-02-21T15:20:40.120Z,100146.84
2018-02-21T15:23:11.021Z,100147.19
2018-02-21T15:25:40.913Z,100145.66
2018-02-21T15:28:10.425Z,100150.34
2018-02-21T15:30:40.013Z,100149.97
2018-02-21T15:33:10.323Z,100161.36
2018-02-21T15:35:40.091Z,100150.86
2018-02-21T15:38:10.525Z,100159.09
2018-02-21T15:40:40.456Z,100152.45
2018-02-21T15:43:09.991Z,100150.50
2018-02-21T15:45:39.465Z,100150.77
2018-02-21T15:48:09.406Z,100152.47
2018-02-21T15:50:38.966Z,100150.64
2018-02-21T15:53:08.485Z,100144.02
2018-02-21T15:55:37.949Z,100147.38
2018-02-21T15:58:07.865Z,100141.77
2018-02-21T16:00:38.111Z,100142.73
2018-02-21T16:03:07.710Z,100144.58
2018-02-21T16:05:37.297Z,100146.73
2018-02-21T16:08:08.194Z,100139.83
2018-02-21T16:10:37.698Z,100137.54
2018-02-21T16:13:07.343Z,100133.98
2018-02-21T16:15:36.863Z,100141.28
2018-02-21T16:18:07.614Z,100149.21
2018-02-21T16:20:37.520Z,100136.66
2018-02-21T16:23:07.061Z,100146.20
2018-02-21T16:25:36.542Z,100130.75
2018-02-21T16:28:07.129Z,100145.53
2018-02-21T16:30:36.763Z,100153.20
2018-02-21T16:33:06.601Z,100145.38
2018-02-21T16:35:36.038Z,100157.05
2018-02-21T16:38:05.525Z,100163.27
2018-02-21T16:40:35.040Z,100166.86
2018-02-21T16:43:04.726Z,100152.33
2018-02-21T16:45:34.809Z,100163.52
2018-02-21T16:48:04.953Z,100154.23
2018-02-21T16:50:35.138Z,100161.20
2018-02-21T16:53:04.820Z,100164.82
2018-02-21T16:55:34.899Z,100157.80
2018-02-21T16:58:04.567Z,100157.59
2018-02-21T17:00:34.704Z,100164.36
2018-02-21T17:03:05.035Z,100164.42
2018-02-21T17:05:34.798Z,100159.27
2018-02-21T17:08:04.623Z,100170.62
2018-02-21T17:10:35.193Z,100168.34
2018-02-21T17:13:05.136Z,100163.37
2018-02-21T17:15:34.570Z,100175.57
2018-02-21T17:18:04.733Z,100162.16
2018-02-21T17:20:34.222Z,100163.47
2018-02-21T17:23:04.507Z,100173.55
2018-02-21T17:25:34.845Z,100167.26
2018-02-21T17:28:04.630Z,100159.91
2018-02-21T17:30:34.075Z,100154.32
2018-02-21T17:33:03.627Z,100167.33
2018-02-21T17:35:33.117Z,100159.13
2018-02-21T17:38:04.702Z,100174.32
2018-02-21T17:40:35.040Z,100178.14
2018-02-21T17:43:04.580Z,100161.77
2018-02-21T17:45:38.128Z,100186.55
2018-02-21T17:48:19.841Z,100180.77
2018-02-21T17:50:53.282Z,100176.61
2018-02-21T17:53:25.835Z,100185.50
2018-02-21T17:55:55.641Z,100187.92
2018-02-21T17:58:26.046Z,100175.90
2018-02-21T18:00:56.358Z,100183.83
2018-02-21T18:03:26.415Z,100179.48
2018-02-21T18:05:56.659Z,100152.66
2018-02-21T18:08:26.733Z,100179.58
2018-02-21T18:10:56.328Z,100175.90
2018-02-21T18:13:27.137Z,100173.27
2018-02-21T18:15:56.891Z,100189.14
2018-02-21T18:18:26.778Z,100172.35
2018-02-21T18:20:56.588Z,100168.31
2018-02-21T18:23:26.704Z,100172.16
2018-02-21T18:25:56.483Z,100162.53
2018-02-21T18:28:26.785Z,100084.88
2018-02-21T18:30:56.562Z,100162.97
2018-02-21T18:33:26.925Z,100166.27
2018-02-21T18:35:56.613Z,100172.42
2018-02-21T18:38:26.174Z,100158.80
2018-02-21T18:40:55.735Z,100169.19
2018-02-21T18:43:25.302Z,100172.23
2018-02-21T18:45:54.771Z,100176.17
2018-02-21T18:48:24.538Z,100180.41
2018-02-21T18:50:54.127Z,100178.71
2018-02-21T18:53:23.681Z,100181.28
2018-02-21T18:55:54.910Z,100187.50
2018-02-21T18:58:24.781Z,100181.44
2018-02-21T19:00:54.198Z,100182.02
2018-02-21T19:03:24.354Z,100198.98
2018-02-21T19:05:54.362Z,100199.15
2018-02-21T19:08:24.236Z,100203.73
2018-02-21T19:10:54.350Z,100195.91
2018-02-21T19:13:23.984Z,100211.16
2018-02-21T19:15:53.683Z,100219.64
2018-02-21T19:18:23.484Z,100224.36
2018-02-21T19:20:53.010Z,100220.48
2018-02-21T19:23:22.884Z,100222.46
2018-02-21T19:25:52.503Z,100231.64
2018-02-21T19:28:22.367Z,100221.98
2018-02-21T19:30:53.525Z,100221.73
2018-02-21T19:33:23.430Z,100203.97
2018-02-21T19:35:52.860Z,100221.52
2018-02-21T19:38:22.328Z,100213.55
2018-02-21T19:40:51.996Z,100217.83
2018-02-21T19:43:21.983Z,100194.25
2018-02-21T19:45:51.483Z,100225.66
2018-02-21T19:48:21.410Z,100219.41
2018-02-21T19:50:50.937Z,100223.95
2018-02-21T19:53:20.792Z,100219.89
2018-02-21T19:55:50.354Z,100200.16
2018-02-21T19:58:19.916Z,100226.08
2018-02-21T20:00:49.656Z,100221.32
2018-02-21T20:03:19.286Z,100223.50
2018-02-21T20:05:49.036Z,100225.27
2018-02-21T20:08:19.079Z,100228.33
2018-02-21T20:10:48.994Z,100234.56
2018-02-21T20:13:18.532Z,100230.28
2018-02-21T20:15:48.353Z,100231.64
2018-02-21T20:18:17.906Z,100228.78
2018-02-21T20:20:47.503Z,100223.73
2018-02-21T20:23:17.639Z,100229.38
2018-02-21T20:25:47.345Z,100223.73
2018-02-21T20:28:17.135Z,100220.40
2018-02-21T20:30:47.199Z,100228.02
2018-02-21T20:33:16.871Z,100226.95
2018-02-21T20:35:46.710Z,100235.48
2018-02-21T20:38:16.960Z,100229.91
2018-02-21T20:40:46.443Z,100229.50
2018-02-21T20:43:15.908Z,100238.66
2018-02-21T20:45:45.840Z,100235.83
2018-02-21T20:48:15.556Z,100236.41
2018-02-21T20:50:45.314Z,100244.02
2018-02-21T20:53:15.166Z,100239.82
2018-02-21T20:55:44.665Z,100238.09
2018-02-21T20:58:14.191Z,100239.83
2018-02-21T21:00:44.269Z,100243.40
2018-02-21T21:03:15.169Z,100211.99
2018-02-21T21:05:44.880Z,100239.38
2018-02-21T21:08:14.792Z,100244.97
2018-02-21T21:10:44.380Z,100227.06
2018-02-21T21:13:13.880Z,100233.02
2018-02-21T21:15:43.811Z,100236.91
2018-02-21T21:18:13.405Z,100238.60
2018-02-21T21:20:43.015Z,100235.79
2018-02-21T21:23:13.825Z,100229.40
2018-02-21T21:25:43.802Z,100231.16
2018-02-21T21:28:13.513Z,100236.09
2018-02-21T21:30:43.463Z,100221.61
2018-02-21T21:33:13.502Z,100230.07
2018-02-21T21:35:43.431Z,100232.17
2018-02-21T21:38:13.779Z,100233.61
2018-02-21T21:40:43.414Z,100221.97
2018-02-21T21:43:14.106Z,100235.40
2018-02-21T21:45:44.287Z,100229.54
2018-02-21T21:48:13.901Z,100236.61
2018-02-21T21:50:43.344Z,100227.64
2018-02-21T21:53:13.389Z,100232.18
2018-02-21T21:55:42.941Z,100228.37
2018-02-21T21:58:12.429Z,100226.20
2018-02-21T22:00:42.476Z,100227.77
2018-02-21T22:03:12.726Z,100244.81
2018-02-21T22:05:42.616Z,100219.80
2018-02-21T22:08:12.523Z,100222.98
2018-02-21T22:10:42.054Z,100224.38
2018-02-21T22:13:11.624Z,100229.63
2018-02-21T22:15:41.633Z,100234.07
2018-02-21T22:18:11.515Z,100211.77
2018-02-21T22:20:40.986Z,100224.20
2018-02-21T22:23:11.214Z,100226.21
2018-02-21T22:25:41.132Z,100220.98
2018-02-21T22:28:10.986Z,100206.27
2018-02-21T22:30:41.190Z,100232.19
2018-02-21T22:33:11.113Z,100230.08
2018-02-21T22:35:40.883Z,100216.41
2018-02-21T22:38:11.234Z,100219.63
2018-02-21T22:40:41.048Z,100222.05
2018-02-21T22:43:10.525Z,100224.84
2018-02-21T22:45:40.433Z,100228.96
2018-02-21T22:48:10.965Z,100226.01
2018-02-21T22:50:40.698Z,100236.19
2018-02-21T22:53:11.423Z,100221.17
2018-02-21T22:55:41.274Z,100232.58
2018-02-21T22:58:11.181Z,100233.09
2018-02-21T23:00:41.104Z,100233.67
2018-02-21T23:03:11.053Z,100232.08
2018-02-21T23:05:41.098Z,100230.61
2018-02-21T23:08:10.859Z,100224.81
2018-02-21T23:10:40.593Z,100223.77
2018-02-21T23:13:10.822Z,100223.61
2018-02-21T23:15:40.757Z,100226.55
2018-02-21T23:18:10.630Z,100223.96
2018-02-21T23:20:40.187Z,100231.23
2018-02-21T23:23:10.388Z,100222.81
2018-02-21T23:25:40.348Z,100218.33
2018-02-21T23:28:10.182Z,100226.23
2018-02-21T23:30:40.622Z,100237.42
2018-02-21T23:33:11.108Z,100224.88
2018-02-21T23:35:41.013Z,100225.94
2018-02-21T23:38:11.504Z,100227.03
2018-02-21T23:40:42.037Z,100218.02
2018-02-21T23:43:11.729Z,100221.30
2018-02-21T23:45:42.077Z,100231.41
2018-02-21T23:48:12.452Z,100225.96
2018-02-21T23:50:42.142Z,100232.09
2018-02-21T23:53:12.651Z,100231.69
2018-02-21T23:55:42.769Z,100231.31
2018-02-21T23:58:12.408Z,100224.72
